Ocean Highway — H3IE — position and weather

sailwx.info

Track history (hours):
 
Tides and Currents Weather Stations Pressure Air Temp Water Temp Dewpoint Dewpoint Depression Visibility Wind Speed Wind Dir Waves Ship Positions

Ocean Highway

Last reported at 2016-Sep-09 07:32 UTC. Time now 2016-Sep-29 04:59 UTC.
Position N 01°14' E 103°58'.
Warning: this ship's position is 19 days out of date.

Length 179.1 m; beam 32.2 m.

Type: Cargo ship. MMSI: 353951000.

Date/timePositionNaut miles runAvg speedWind from/ knotsBaromVisibWave heightAir tempDewpointWater temp
2016-Sep-09 07:32N 01°14' E 103°58'1010.0
2016-Sep-09 06:34N 01°12' E 103°49'6 2.8
2016-Sep-09 04:27N 01°17' E 103°45'0 0.0
2016-Sep-09 03:33N 01°17' E 103°45'0 0.0
2016-Sep-09 02:15N 01°17' E 103°45'0 0.0
2016-Sep-09 01:27N 01°17' E 103°45'0 0.0
2016-Sep-09 00:33N 01°17' E 103°45'0 0.0
2016-Sep-08 23:33N 01°17' E 103°45'0 0.0
2016-Sep-08 22:33N 01°17' E 103°45'0 0.4
2016-Sep-08 21:33N 01°17' E 103°45'7 6.7
2016-Sep-08 20:33N 01°13' E 103°51'10 9.9
2016-Sep-08 19:33N 01°15' E 104°00'  
2016-Sep-04 16:32N 01°15' E 104°05'1413.8
2016-Sep-04 15:31N 01°11' E 103°52'6 6.6
2016-Sep-04 14:33N 01°15' E 103°46'2 2.1
2016-Sep-04 13:22N 01°17' E 103°45'0 0.0
2016-Sep-04 12:28N 01°17' E 103°45'0 0.0
2016-Sep-04 11:28N 01°17' E 103°45'0 0.0
2016-Sep-04 08:13N 01°17' E 103°45'0 0.0
2016-Sep-04 06:22N 01°17' E 103°45'8 4.3
2016-Sep-04 04:33N 01°13' E 103°51'9 9.1
2016-Sep-04 03:33N 01°15' E 104°00'  
Track history (hours):
 
Tides and Currents Weather Stations Pressure Air Temp Water Temp Dewpoint Dewpoint Depression Visibility Wind Speed Wind Dir Waves Ship Positions

Ocean Highway

Last reported at 2016-Sep-09 07:32 UTC. Time now 2016-Sep-29 04:59 UTC.
Position N 01°14' E 103°58'.
Warning: this ship's position is 19 days out of date.

Length 179.1 m; beam 32.2 m.

Type: Cargo ship. MMSI: 353951000.

Date/timePositionNaut miles runAvg speedWind from/ knotsBaromVisibWave heightAir tempDewpointWater temp
2016-Sep-09 07:32N 01°14' E 103°58'1010.0
2016-Sep-09 06:34N 01°12' E 103°49'6 2.8
2016-Sep-09 04:27N 01°17' E 103°45'0 0.0
2016-Sep-09 03:33N 01°17' E 103°45'0 0.0
2016-Sep-09 02:15N 01°17' E 103°45'0 0.0
2016-Sep-09 01:27N 01°17' E 103°45'0 0.0
2016-Sep-09 00:33N 01°17' E 103°45'0 0.0
2016-Sep-08 23:33N 01°17' E 103°45'0 0.0
2016-Sep-08 22:33N 01°17' E 103°45'0 0.4
2016-Sep-08 21:33N 01°17' E 103°45'7 6.7
2016-Sep-08 20:33N 01°13' E 103°51'10 9.9
2016-Sep-08 19:33N 01°15' E 104°00'  
2016-Sep-04 16:32N 01°15' E 104°05'1413.8
2016-Sep-04 15:31N 01°11' E 103°52'6 6.6
2016-Sep-04 14:33N 01°15' E 103°46'2 2.1
2016-Sep-04 13:22N 01°17' E 103°45'0 0.0
2016-Sep-04 12:28N 01°17' E 103°45'0 0.0
2016-Sep-04 11:28N 01°17' E 103°45'0 0.0
2016-Sep-04 08:13N 01°17' E 103°45'0 0.0
2016-Sep-04 06:22N 01°17' E 103°45'8 4.3
2016-Sep-04 04:33N 01°13' E 103°51'9 9.1
2016-Sep-04 03:33N 01°15' E 104°00'  

Dump ship's entire track history